sensor_id;sensor_type;location;lat;lon;timestamp;pressure;altitude;pressure_sealevel;temperature;humidity
17593;BME280;8915;51.760;14.300;2023-05-29T00:01:57;101283.53;;;9.80;72.22
17593;BME280;8915;51.760;14.300;2023-05-29T00:04:24;101286.59;;;9.73;71.08
17593;BME280;8915;51.760;14.300;2023-05-29T00:06:52;101283.63;;;9.66;68.12
17593;BME280;8915;51.760;14.300;2023-05-29T00:09:18;101283.13;;;9.64;69.18
17593;BME280;8915;51.760;14.300;2023-05-29T00:11:44;101288.41;;;9.64;70.85
17593;BME280;8915;51.760;14.300;2023-05-29T00:14:16;101291.66;;;9.61;69.54
17593;BME280;8915;51.760;14.300;2023-05-29T00:16:44;101290.88;;;9.61;70.99
17593;BME280;8915;51.760;14.300;2023-05-29T00:19:12;101280.66;;;9.59;71.69
17593;BME280;8915;51.760;14.300;2023-05-29T00:21:38;101289.94;;;9.57;72.11
17593;BME280;8915;51.760;14.300;2023-05-29T00:24:06;101286.03;;;9.54;71.97
17593;BME280;8915;51.760;14.300;2023-05-29T00:26:32;101289.44;;;9.55;72.78
17593;BME280;8915;51.760;14.300;2023-05-29T00:28:59;101286.94;;;9.50;72.58
17593;BME280;8915;51.760;14.300;2023-05-29T00:31:26;101293.56;;;9.47;72.23
17593;BME280;8915;51.760;14.300;2023-05-29T00:33:53;101284.25;;;9.41;71.38
17593;BME280;8915;51.760;14.300;2023-05-29T00:36:20;101288.53;;;9.37;71.31
17593;BME280;8915;51.760;14.300;2023-05-29T00:38:49;101280.63;;;9.37;72.02
17593;BME280;8915;51.760;14.300;2023-05-29T00:41:16;101286.19;;;9.36;71.17
17593;BME280;8915;51.760;14.300;2023-05-29T00:43:45;101281.72;;;9.36;72.84
17593;BME280;8915;51.760;14.300;2023-05-29T00:46:13;101289.00;;;9.31;71.03
17593;BME280;8915;51.760;14.300;2023-05-29T00:48:40;101292.38;;;9.31;72.55
17593;BME280;8915;51.760;14.300;2023-05-29T00:51:08;101280.59;;;9.29;73.13
17593;BME280;8915;51.760;14.300;2023-05-29T00:53:35;101280.13;;;9.27;73.21
17593;BME280;8915;51.760;14.300;2023-05-29T00:56:01;101278.84;;;9.24;72.95
17593;BME280;8915;51.760;14.300;2023-05-29T00:58:33;101279.16;;;9.23;73.66
17593;BME280;8915;51.760;14.300;2023-05-29T01:01:00;101278.34;;;9.22;74.25
17593;BME280;8915;51.760;14.300;2023-05-29T01:03:26;101289.50;;;9.19;74.11
17593;BME280;8915;51.760;14.300;2023-05-29T01:05:53;101275.66;;;9.14;73.79
17593;BME280;8915;51.760;14.300;2023-05-29T01:08:19;101285.72;;;9.12;73.89
17593;BME280;8915;51.760;14.300;2023-05-29T01:10:46;101287.41;;;9.08;73.47
17593;BME280;8915;51.760;14.300;2023-05-29T01:13:18;101287.97;;;9.05;74.14
17593;BME280;8915;51.760;14.300;2023-05-29T01:15:52;101289.69;;;9.01;73.65
17593;BME280;8915;51.760;14.300;2023-05-29T01:18:27;101293.38;;;9.00;74.45
17593;BME280;8915;51.760;14.300;2023-05-29T01:21:04;101285.78;;;8.98;75.36
17593;BME280;8915;51.760;14.300;2023-05-29T01:24:01;101286.34;;;8.95;75.53
17593;BME280;8915;51.760;14.300;2023-05-29T01:26:42;101301.69;;;8.93;75.70
17593;BME280;8915;51.760;14.300;2023-05-29T01:29:14;101299.34;;;8.92;76.18
17593;BME280;8915;51.760;14.300;2023-05-29T01:31:42;101303.63;;;8.88;75.55
17593;BME280;8915;51.760;14.300;2023-05-29T01:34:08;101306.56;;;8.86;75.68
17593;BME280;8915;51.760;14.300;2023-05-29T01:36:35;101303.75;;;8.83;75.54
17593;BME280;8915;51.760;14.300;2023-05-29T01:39:02;101307.00;;;8.80;75.52
17593;BME280;8915;51.760;14.300;2023-05-29T01:41:29;101294.41;;;8.77;76.08
17593;BME280;8915;51.760;14.300;2023-05-29T01:43:57;101300.75;;;8.76;76.61
17593;BME280;8915;51.760;14.300;2023-05-29T01:46:24;101299.00;;;8.71;76.07
17593;BME280;8915;51.760;14.300;2023-05-29T01:48:51;101296.16;;;8.68;76.11
17593;BME280;8915;51.760;14.300;2023-05-29T01:51:19;101296.47;;;8.66;76.29
17593;BME280;8915;51.760;14.300;2023-05-29T01:53:45;101300.16;;;8.65;76.59
17593;BME280;8915;51.760;14.300;2023-05-29T01:56:12;101302.91;;;8.60;76.56
17593;BME280;8915;51.760;14.300;2023-05-29T01:58:39;101295.31;;;8.59;76.99
17593;BME280;8915;51.760;14.300;2023-05-29T02:01:08;101298.53;;;8.56;77.24
17593;BME280;8915;51.760;14.300;2023-05-29T02:03:35;101295.81;;;8.47;75.79
17593;BME280;8915;51.760;14.300;2023-05-29T02:06:01;101306.16;;;8.44;76.08
17593;BME280;8915;51.760;14.300;2023-05-29T02:08:28;101309.16;;;8.37;76.88
17593;BME280;8915;51.760;14.300;2023-05-29T02:10:57;101301.84;;;8.34;76.68
17593;BME280;8915;51.760;14.300;2023-05-29T02:13:26;101303.53;;;8.30;77.36
17593;BME280;8915;51.760;14.300;2023-05-29T02:15:53;101302.44;;;8.31;77.47
17593;BME280;8915;51.760;14.300;2023-05-29T02:18:23;101297.84;;;8.23;77.37
17593;BME280;8915;51.760;14.300;2023-05-29T02:20:50;101301.16;;;8.15;76.23
17593;BME280;8915;51.760;14.300;2023-05-29T02:23:20;101302.97;;;8.15;77.08
17593;BME280;8915;51.760;14.300;2023-05-29T02:25:47;101292.25;;;8.11;77.91
17593;BME280;8915;51.760;14.300;2023-05-29T02:28:13;101288.09;;;8.10;78.08
17593;BME280;8915;51.760;14.300;2023-05-29T02:30:40;101303.34;;;8.08;78.17
17593;BME280;8915;51.760;14.300;2023-05-29T02:33:08;101295.56;;;8.03;77.87
17593;BME280;8915;51.760;14.300;2023-05-29T02:35:36;101300.06;;;8.03;78.41
17593;BME280;8915;51.760;14.300;2023-05-29T02:38:03;101301.69;;;7.99;78.73
17593;BME280;8915;51.760;14.300;2023-05-29T02:40:29;101303.63;;;7.93;77.94
17593;BME280;8915;51.760;14.300;2023-05-29T02:42:57;101301.00;;;7.93;79.19
17593;BME280;8915;51.760;14.300;2023-05-29T02:45:23;101304.22;;;7.90;78.28
17593;BME280;8915;51.760;14.300;2023-05-29T02:47:50;101309.38;;;7.82;77.30
17593;BME280;8915;51.760;14.300;2023-05-29T02:50:16;101308.28;;;7.83;78.76
17593;BME280;8915;51.760;14.300;2023-05-29T02:52:44;101312.28;;;7.80;79.33
17593;BME280;8915;51.760;14.300;2023-05-29T02:55:11;101309.16;;;7.78;79.46
17593;BME280;8915;51.760;14.300;2023-05-29T02:57:37;101309.72;;;7.75;79.34
17593;BME280;8915;51.760;14.300;2023-05-29T03:00:04;101313.72;;;7.73;78.31
17593;BME280;8915;51.760;14.300;2023-05-29T03:02:33;101325.03;;;7.73;79.37
17593;BME280;8915;51.760;14.300;2023-05-29T03:05:00;101324.81;;;7.70;79.34
17593;BME280;8915;51.760;14.300;2023-05-29T03:07:26;101322.25;;;7.65;78.37
17593;BME280;8915;51.760;14.300;2023-05-29T03:09:56;101313.88;;;7.63;78.57
17593;BME280;8915;51.760;14.300;2023-05-29T03:12:23;101325.38;;;7.67;79.26
17593;BME280;8915;51.760;14.300;2023-05-29T03:14:52;101321.69;;;7.68;79.46
17593;BME280;8915;51.760;14.300;2023-05-29T03:17:19;101327.50;;;7.65;79.55
17593;BME280;8915;51.760;14.300;2023-05-29T03:19:46;101324.13;;;7.64;79.64
17593;BME280;8915;51.760;14.300;2023-05-29T03:22:12;101327.31;;;7.61;79.92
17593;BME280;8915;51.760;14.300;2023-05-29T03:24:40;101323.91;;;7.61;80.21
17593;BME280;8915;51.760;14.300;2023-05-29T03:27:09;101322.56;;;7.63;79.92
17593;BME280;8915;51.760;14.300;2023-05-29T03:29:36;101320.91;;;7.67;79.92
17593;BME280;8915;51.760;14.300;2023-05-29T03:32:04;101327.22;;;7.66;80.06
17593;BME280;8915;51.760;14.300;2023-05-29T03:34:32;101323.25;;;7.69;79.92
17593;BME280;8915;51.760;14.300;2023-05-29T03:37:01;101325.78;;;7.74;79.75
17593;BME280;8915;51.760;14.300;2023-05-29T03:39:29;101321.03;;;7.76;79.90
17593;BME280;8915;51.760;14.300;2023-05-29T03:41:56;101327.56;;;7.78;79.94
17593;BME280;8915;51.760;14.300;2023-05-29T03:44:28;101327.47;;;7.83;79.58
17593;BME280;8915;51.760;14.300;2023-05-29T03:46:54;101336.06;;;7.89;79.80
17593;BME280;8915;51.760;14.300;2023-05-29T03:49:21;101333.63;;;7.92;79.74
17593;BME280;8915;51.760;14.300;2023-05-29T03:51:47;101342.50;;;7.96;79.69
17593;BME280;8915;51.760;14.300;2023-05-29T03:54:15;101337.16;;;8.01;79.62
17593;BME280;8915;51.760;14.300;2023-05-29T03:56:43;101342.03;;;8.08;79.27
17593;BME280;8915;51.760;14.300;2023-05-29T03:59:12;101339.81;;;8.15;79.11
17593;BME280;8915;51.760;14.300;2023-05-29T04:01:40;101342.00;;;8.26;79.39
17593;BME280;8915;51.760;14.300;2023-05-29T04:04:06;101350.56;;;8.32;79.41
17593;BME280;8915;51.760;14.300;2023-05-29T04:06:32;101344.06;;;8.43;79.26
17593;BME280;8915;51.760;14.300;2023-05-29T04:09:03;101349.63;;;8.55;79.64
17593;BME280;8915;51.760;14.300;2023-05-29T04:11:30;101348.06;;;8.67;79.22
17593;BME280;8915;51.760;14.300;2023-05-29T04:14:02;101357.59;;;8.77;78.91
17593;BME280;8915;51.760;14.300;2023-05-29T04:16:31;101357.09;;;8.88;78.81
17593;BME280;8915;51.760;14.300;2023-05-29T04:19:00;101353.66;;;9.01;78.79
17593;BME280;8915;51.760;14.300;2023-05-29T04:21:29;101357.06;;;9.15;78.29
17593;BME280;8915;51.760;14.300;2023-05-29T04:23:59;101357.81;;;9.29;78.25
17593;BME280;8915;51.760;14.300;2023-05-29T04:26:25;101349.16;;;9.37;77.74
17593;BME280;8915;51.760;14.300;2023-05-29T04:28:52;101362.63;;;9.49;77.29
17593;BME280;8915;51.760;14.300;2023-05-29T04:31:23;101359.75;;;9.59;76.57
17593;BME280;8915;51.760;14.300;2023-05-29T04:33:52;101363.88;;;9.74;76.63
17593;BME280;8915;51.760;14.300;2023-05-29T04:36:24;101359.13;;;9.84;75.64
17593;BME280;8915;51.760;14.300;2023-05-29T04:38:52;101366.19;;;9.97;75.88
17593;BME280;8915;51.760;14.300;2023-05-29T04:41:20;101365.97;;;10.07;74.80
17593;BME280;8915;51.760;14.300;2023-05-29T04:43:49;101364.63;;;10.18;74.82
17593;BME280;8915;51.760;14.300;2023-05-29T04:46:17;101374.94;;;10.28;74.72
17593;BME280;8915;51.760;14.300;2023-05-29T04:48:44;101378.38;;;10.37;73.14
17593;BME280;8915;51.760;14.300;2023-05-29T04:51:10;101382.31;;;10.48;72.86
17593;BME280;8915;51.760;14.300;2023-05-29T04:53:38;101391.53;;;10.59;72.53
17593;BME280;8915;51.760;14.300;2023-05-29T04:56:06;101385.16;;;10.69;71.95
17593;BME280;8915;51.760;14.300;2023-05-29T04:58:34;101389.28;;;10.83;71.07
17593;BME280;8915;51.760;14.300;2023-05-29T05:01:03;101387.13;;;10.94;71.00
17593;BME280;8915;51.760;14.300;2023-05-29T05:03:31;101378.59;;;11.05;70.22
17593;BME280;8915;51.760;14.300;2023-05-29T05:05:59;101384.03;;;11.17;69.54
17593;BME280;8915;51.760;14.300;2023-05-29T05:08:25;101386.84;;;11.29;68.95
17593;BME280;8915;51.760;14.300;2023-05-29T05:10:53;101387.78;;;11.42;68.17
17593;BME280;8915;51.760;14.300;2023-05-29T05:13:20;101387.16;;;11.53;68.85
17593;BME280;8915;51.760;14.300;2023-05-29T05:15:46;101394.97;;;11.67;68.44
17593;BME280;8915;51.760;14.300;2023-05-29T05:18:13;101387.97;;;11.79;68.19
17593;BME280;8915;51.760;14.300;2023-05-29T05:20:41;101383.59;;;11.92;68.00
17593;BME280;8915;51.760;14.300;2023-05-29T05:23:09;101389.16;;;12.07;67.30
17593;BME280;8915;51.760;14.300;2023-05-29T05:25:36;101385.41;;;12.17;67.04
17593;BME280;8915;51.760;14.300;2023-05-29T05:28:05;101385.50;;;12.29;65.95
17593;BME280;8915;51.760;14.300;2023-05-29T05:30:33;101389.84;;;12.42;65.94
17593;BME280;8915;51.760;14.300;2023-05-29T05:33:03;101392.59;;;12.54;66.31
17593;BME280;8915;51.760;14.300;2023-05-29T05:35:29;101389.41;;;12.69;64.99
17593;BME280;8915;51.760;14.300;2023-05-29T05:37:56;101392.13;;;12.81;64.59
17593;BME280;8915;51.760;14.300;2023-05-29T05:40:25;101390.34;;;12.93;64.18
17593;BME280;8915;51.760;14.300;2023-05-29T05:42:58;101391.88;;;13.03;64.08
17593;BME280;8915;51.760;14.300;2023-05-29T05:45:46;101385.88;;;13.14;62.96
17593;BME280;8915;51.760;14.300;2023-05-29T05:48:12;101388.16;;;13.24;63.17
17593;BME280;8915;51.760;14.300;2023-05-29T05:50:39;101393.50;;;13.36;62.96
17593;BME280;8915;51.760;14.300;2023-05-29T05:53:06;101392.06;;;13.47;62.76
17593;BME280;8915;51.760;14.300;2023-05-29T05:55:32;101398.16;;;13.60;62.14
17593;BME280;8915;51.760;14.300;2023-05-29T05:57:59;101396.34;;;13.72;61.86
17593;BME280;8915;51.760;14.300;2023-05-29T06:00:25;101401.34;;;13.86;61.26
17593;BME280;8915;51.760;14.300;2023-05-29T06:02:57;101400.31;;;13.99;61.29
17593;BME280;8915;51.760;14.300;2023-05-29T06:05:50;101400.78;;;14.13;60.30
17593;BME280;8915;51.760;14.300;2023-05-29T06:08:17;101409.91;;;14.24;59.56
17593;BME280;8915;51.760;14.300;2023-05-29T06:10:44;101408.38;;;14.35;59.61
17593;BME280;8915;51.760;14.300;2023-05-29T06:13:11;101400.31;;;14.43;59.90
17593;BME280;8915;51.760;14.300;2023-05-29T06:15:44;101409.06;;;14.56;58.81
17593;BME280;8915;51.760;14.300;2023-05-29T06:18:12;101413.94;;;14.66;58.77
17593;BME280;8915;51.760;14.300;2023-05-29T06:20:39;101404.00;;;14.75;58.81
17593;BME280;8915;51.760;14.300;2023-05-29T06:23:07;101408.88;;;14.85;58.68
17593;BME280;8915;51.760;14.300;2023-05-29T06:25:35;101408.06;;;14.96;57.84
17593;BME280;8915;51.760;14.300;2023-05-29T06:28:01;101413.72;;;15.07;57.77
17593;BME280;8915;51.760;14.300;2023-05-29T06:30:31;101414.38;;;15.16;57.36
17593;BME280;8915;51.760;14.300;2023-05-29T06:32:58;101415.78;;;15.25;57.71
17593;BME280;8915;51.760;14.300;2023-05-29T06:35:30;101421.88;;;15.38;56.94
17593;BME280;8915;51.760;14.300;2023-05-29T06:37:58;101425.19;;;15.47;56.54
17593;BME280;8915;51.760;14.300;2023-05-29T06:40:25;101433.38;;;15.54;56.50
17593;BME280;8915;51.760;14.300;2023-05-29T06:42:52;101434.03;;;15.63;56.36
17593;BME280;8915;51.760;14.300;2023-05-29T06:45:33;101431.63;;;15.73;56.69
17593;BME280;8915;51.760;14.300;2023-05-29T06:48:00;101445.00;;;15.89;56.18
17593;BME280;8915;51.760;14.300;2023-05-29T06:50:26;101440.66;;;15.96;56.09
17593;BME280;8915;51.760;14.300;2023-05-29T06:52:56;101445.81;;;16.05;55.98
17593;BME280;8915;51.760;14.300;2023-05-29T06:55:29;101435.09;;;16.17;55.81
17593;BME280;8915;51.760;14.300;2023-05-29T06:57:56;101451.78;;;16.29;54.91
17593;BME280;8915;51.760;14.300;2023-05-29T07:00:25;101445.66;;;16.41;55.85
17593;BME280;8915;51.760;14.300;2023-05-29T07:03:08;101449.44;;;16.55;54.87
17593;BME280;8915;51.760;14.300;2023-05-29T07:05:34;101455.47;;;16.68;54.93
17593;BME280;8915;51.760;14.300;2023-05-29T07:08:02;101456.50;;;16.79;54.69
17593;BME280;8915;51.760;14.300;2023-05-29T07:10:28;101443.81;;;16.91;54.43
17593;BME280;8915;51.760;14.300;2023-05-29T07:12:55;101443.28;;;17.01;53.88
17593;BME280;8915;51.760;14.300;2023-05-29T07:15:22;101448.09;;;17.11;53.88
17593;BME280;8915;51.760;14.300;2023-05-29T07:17:48;101445.66;;;17.22;53.70
17593;BME280;8915;51.760;14.300;2023-05-29T07:20:19;101447.09;;;17.35;52.70
17593;BME280;8915;51.760;14.300;2023-05-29T07:22:47;101442.00;;;17.45;52.24
17593;BME280;8915;51.760;14.300;2023-05-29T07:25:15;101445.69;;;17.56;52.80
17593;BME280;8915;51.760;14.300;2023-05-29T07:27:42;101446.22;;;17.65;51.78
17593;BME280;8915;51.760;14.300;2023-05-29T07:30:09;101448.03;;;17.80;52.41
17593;BME280;8915;51.760;14.300;2023-05-29T07:32:36;101450.94;;;17.91;52.16
17593;BME280;8915;51.760;14.300;2023-05-29T07:35:04;101447.34;;;18.02;51.08
17593;BME280;8915;51.760;14.300;2023-05-29T07:37:32;101450.53;;;18.11;50.89
17593;BME280;8915;51.760;14.300;2023-05-29T07:39:59;101449.22;;;18.21;49.23
17593;BME280;8915;51.760;14.300;2023-05-29T07:42:50;101446.28;;;18.29;49.92
17593;BME280;8915;51.760;14.300;2023-05-29T07:45:16;101445.75;;;18.39;50.51
17593;BME280;8915;51.760;14.300;2023-05-29T07:47:43;101462.38;;;18.52;49.35
17593;BME280;8915;51.760;14.300;2023-05-29T07:50:10;101456.44;;;18.62;47.37
17593;BME280;8915;51.760;14.300;2023-05-29T07:52:38;101462.28;;;18.71;48.09
17593;BME280;8915;51.760;14.300;2023-05-29T07:55:04;101467.41;;;18.79;49.20
17593;BME280;8915;51.760;14.300;2023-05-29T07:57:31;101459.53;;;18.90;48.62
17593;BME280;8915;51.760;14.300;2023-05-29T08:00:00;101470.41;;;19.00;48.43
17593;BME280;8915;51.760;14.300;2023-05-29T08:02:31;101470.16;;;19.09;46.54
17593;BME280;8915;51.760;14.300;2023-05-29T08:05:17;101464.19;;;19.19;46.02
17593;BME280;8915;51.760;14.300;2023-05-29T08:07:44;101466.19;;;19.25;44.65
17593;BME280;8915;51.760;14.300;2023-05-29T08:10:12;101470.53;;;19.33;46.69
17593;BME280;8915;51.760;14.300;2023-05-29T08:12:38;101466.81;;;19.41;46.71
17593;BME280;8915;51.760;14.300;2023-05-29T08:15:08;101468.84;;;19.51;45.82
17593;BME280;8915;51.760;14.300;2023-05-29T08:17:36;101465.16;;;19.63;46.01
17593;BME280;8915;51.760;14.300;2023-05-29T08:20:03;101463.34;;;19.70;45.57
17593;BME280;8915;51.760;14.300;2023-05-29T08:22:32;101466.94;;;19.81;44.97
17593;BME280;8915;51.760;14.300;2023-05-29T08:24:59;101466.66;;;19.93;45.36
17593;BME280;8915;51.760;14.300;2023-05-29T08:27:26;101467.16;;;20.02;45.66
17593;BME280;8915;51.760;14.300;2023-05-29T08:29:52;101465.78;;;20.12;45.15
17593;BME280;8915;51.760;14.300;2023-05-29T08:32:21;101465.47;;;20.20;44.42
17593;BME280;8915;51.760;14.300;2023-05-29T08:34:47;101474.34;;;20.28;44.87
17593;BME280;8915;51.760;14.300;2023-05-29T08:37:15;101469.44;;;20.37;44.50
17593;BME280;8915;51.760;14.300;2023-05-29T08:39:41;101466.44;;;20.42;41.66
17593;BME280;8915;51.760;14.300;2023-05-29T08:42:13;101472.59;;;20.46;42.92
17593;BME280;8915;51.760;14.300;2023-05-29T08:44:40;101469.19;;;20.49;43.48
17593;BME280;8915;51.760;14.300;2023-05-29T08:47:08;101466.56;;;20.56;43.28
17593;BME280;8915;51.760;14.300;2023-05-29T08:49:42;101464.31;;;20.61;41.93
17593;BME280;8915;51.760;14.300;2023-05-29T08:52:10;101458.63;;;20.70;41.83
17593;BME280;8915;51.760;14.300;2023-05-29T08:54:38;101457.91;;;20.76;41.46
17593;BME280;8915;51.760;14.300;2023-05-29T08:57:05;101455.28;;;20.83;41.49
17593;BME280;8915;51.760;14.300;2023-05-29T08:59:32;101457.28;;;20.90;40.80
17593;BME280;8915;51.760;14.300;2023-05-29T09:01:59;101460.38;;;20.95;41.70
17593;BME280;8915;51.760;14.300;2023-05-29T09:04:27;101463.50;;;21.04;42.03
17593;BME280;8915;51.760;14.300;2023-05-29T09:06:57;101458.56;;;21.13;41.50
17593;BME280;8915;51.760;14.300;2023-05-29T09:09:24;101457.09;;;21.23;41.04
17593;BME280;8915;51.760;14.300;2023-05-29T09:11:52;101458.69;;;21.31;40.55
17593;BME280;8915;51.760;14.300;2023-05-29T09:14:35;101456.00;;;21.38;40.31
17593;BME280;8915;51.760;14.300;2023-05-29T09:17:02;101455.66;;;21.43;39.74
17593;BME280;8915;51.760;14.300;2023-05-29T09:19:29;101456.44;;;21.47;38.69
17593;BME280;8915;51.760;14.300;2023-05-29T09:22:02;101450.31;;;21.53;40.28
17593;BME280;8915;51.760;14.300;2023-05-29T09:24:29;101453.41;;;21.59;38.31
17593;BME280;8915;51.760;14.300;2023-05-29T09:26:56;101460.75;;;21.65;37.63
17593;BME280;8915;51.760;14.300;2023-05-29T09:29:24;101460.00;;;21.68;37.93
17593;BME280;8915;51.760;14.300;2023-05-29T09:31:51;101465.00;;;21.70;36.00
17593;BME280;8915;51.760;14.300;2023-05-29T09:34:17;101447.34;;;21.72;35.53
17593;BME280;8915;51.760;14.300;2023-05-29T09:36:44;101461.22;;;21.78;35.66
17593;BME280;8915;51.760;14.300;2023-05-29T09:39:11;101458.13;;;21.79;36.26
17593;BME280;8915;51.760;14.300;2023-05-29T09:41:41;101454.31;;;21.80;34.74
17593;BME280;8915;51.760;14.300;2023-05-29T09:44:11;101457.00;;;21.87;36.81
17593;BME280;8915;51.760;14.300;2023-05-29T09:46:38;101456.22;;;21.87;37.14
17593;BME280;8915;51.760;14.300;2023-05-29T09:49:09;101460.84;;;21.90;36.01
17593;BME280;8915;51.760;14.300;2023-05-29T09:51:36;101456.63;;;21.89;35.37
17593;BME280;8915;51.760;14.300;2023-05-29T09:54:14;101447.03;;;21.91;36.22
17593;BME280;8915;51.760;14.300;2023-05-29T09:56:42;101453.56;;;21.97;36.06
17593;BME280;8915;51.760;14.300;2023-05-29T09:59:10;101446.66;;;22.07;36.95
17593;BME280;8915;51.760;14.300;2023-05-29T10:01:39;101435.94;;;22.14;35.95
17593;BME280;8915;51.760;14.300;2023-05-29T10:04:06;101440.94;;;22.22;36.24
17593;BME280;8915;51.760;14.300;2023-05-29T10:06:35;101442.09;;;22.25;35.54
17593;BME280;8915;51.760;14.300;2023-05-29T10:09:03;101450.16;;;22.32;34.60
17593;BME280;8915;51.760;14.300;2023-05-29T10:11:35;101441.72;;;22.40;35.92
17593;BME280;8915;51.760;14.300;2023-05-29T10:14:05;101454.06;;;22.52;34.30
17593;BME280;8915;51.760;14.300;2023-05-29T10:16:33;101449.44;;;22.63;33.78
17593;BME280;8915;51.760;14.300;2023-05-29T10:19:05;101442.91;;;22.74;34.01
17593;BME280;8915;51.760;14.300;2023-05-29T10:21:36;101449.81;;;22.86;33.88
17593;BME280;8915;51.760;14.300;2023-05-29T10:24:05;101448.63;;;22.94;33.77
17593;BME280;8915;51.760;14.300;2023-05-29T10:26:36;101450.56;;;22.90;33.86
17593;BME280;8915;51.760;14.300;2023-05-29T10:29:11;101450.56;;;22.86;33.92
17593;BME280;8915;51.760;14.300;2023-05-29T10:31:43;101449.03;;;22.89;34.23
17593;BME280;8915;51.760;14.300;2023-05-29T10:34:21;101453.25;;;22.97;34.55
17593;BME280;8915;51.760;14.300;2023-05-29T10:36:56;101451.31;;;23.01;31.97
17593;BME280;8915;51.760;14.300;2023-05-29T10:39:27;101445.13;;;23.07;33.92
17593;BME280;8915;51.760;14.300;2023-05-29T10:41:55;101443.19;;;23.15;34.34
17593;BME280;8915;51.760;14.300;2023-05-29T10:44:41;101453.59;;;23.20;32.66
17593;BME280;8915;51.760;14.300;2023-05-29T10:47:07;101448.59;;;23.15;32.40
17593;BME280;8915;51.760;14.300;2023-05-29T10:49:36;101442.03;;;23.12;33.29
17593;BME280;8915;51.760;14.300;2023-05-29T10:52:03;101440.91;;;23.10;33.17
17593;BME280;8915;51.760;14.300;2023-05-29T10:54:40;101434.75;;;23.09;33.83
17593;BME280;8915;51.760;14.300;2023-05-29T10:57:08;101427.44;;;23.10;33.11
17593;BME280;8915;51.760;14.300;2023-05-29T10:59:36;101431.66;;;23.07;33.12
17593;BME280;8915;51.760;14.300;2023-05-29T11:02:03;101434.75;;;23.02;32.20
17593;BME280;8915;51.760;14.300;2023-05-29T11:04:30;101435.53;;;22.96;32.82
17593;BME280;8915;51.760;14.300;2023-05-29T11:06:58;101434.00;;;22.91;32.45
17593;BME280;8915;51.760;14.300;2023-05-29T11:09:30;101432.47;;;22.90;33.91
17593;BME280;8915;51.760;14.300;2023-05-29T11:12:15;101424.78;;;22.89;33.47
17593;BME280;8915;51.760;14.300;2023-05-29T11:14:54;101429.78;;;22.94;32.90
17593;BME280;8915;51.760;14.300;2023-05-29T11:17:31;101426.69;;;23.09;34.34
17593;BME280;8915;51.760;14.300;2023-05-29T11:20:01;101434.34;;;23.25;32.65
17593;BME280;8915;51.760;14.300;2023-05-29T11:22:41;101430.47;;;23.29;33.79
17593;BME280;8915;51.760;14.300;2023-05-29T11:25:13;101433.59;;;23.17;31.41
17593;BME280;8915;51.760;14.300;2023-05-29T11:27:43;101428.59;;;23.23;32.49
17593;BME280;8915;51.760;14.300;2023-05-29T11:30:10;101427.00;;;23.33;33.31
17593;BME280;8915;51.760;14.300;2023-05-29T11:32:39;101426.22;;;23.36;31.66
17593;BME280;8915;51.760;14.300;2023-05-29T11:35:08;101430.88;;;23.32;32.12
17593;BME280;8915;51.760;14.300;2023-05-29T11:37:35;101430.88;;;23.32;31.52
17593;BME280;8915;51.760;14.300;2023-05-29T11:40:03;101431.25;;;23.27;32.13
17593;BME280;8915;51.760;14.300;2023-05-29T11:42:29;101430.53;;;23.12;31.83
17593;BME280;8915;51.760;14.300;2023-05-29T11:45:09;101424.72;;;23.10;33.20
17593;BME280;8915;51.760;14.300;2023-05-29T11:47:50;101420.91;;;23.04;32.99
17593;BME280;8915;51.760;14.300;2023-05-29T11:50:20;101418.22;;;22.93;31.64
17593;BME280;8915;51.760;14.300;2023-05-29T11:52:46;101423.25;;;22.84;32.87
17593;BME280;8915;51.760;14.300;2023-05-29T11:55:13;101425.16;;;22.84;33.10
17593;BME280;8915;51.760;14.300;2023-05-29T11:57:39;101424.78;;;22.85;32.35
17593;BME280;8915;51.760;14.300;2023-05-29T12:00:11;101415.94;;;22.88;32.82
17593;BME280;8915;51.760;14.300;2023-05-29T12:02:38;101424.03;;;22.92;32.71
17593;BME280;8915;51.760;14.300;2023-05-29T12:05:05;101419.75;;;22.91;32.29
17593;BME280;8915;51.760;14.300;2023-05-29T12:07:32;101414.38;;;22.98;32.31
17593;BME280;8915;51.760;14.300;2023-05-29T12:10:08;101407.44;;;23.04;32.39
17593;BME280;8915;51.760;14.300;2023-05-29T12:12:35;101394.34;;;23.09;31.77
17593;BME280;8915;51.760;14.300;2023-05-29T12:15:02;101411.63;;;23.15;32.30
17593;BME280;8915;51.760;14.300;2023-05-29T12:17:32;101404.69;;;23.25;32.29
17593;BME280;8915;51.760;14.300;2023-05-29T12:19:58;101406.22;;;23.26;32.12
17593;BME280;8915;51.760;14.300;2023-05-29T12:22:32;101400.06;;;23.33;32.45
17593;BME280;8915;51.760;14.300;2023-05-29T12:25:04;101403.09;;;23.34;32.43
17593;BME280;8915;51.760;14.300;2023-05-29T12:27:32;101399.63;;;23.41;32.33
17593;BME280;8915;51.760;14.300;2023-05-29T12:30:03;101402.72;;;23.43;31.96
17593;BME280;8915;51.760;14.300;2023-05-29T12:32:35;101391.50;;;23.52;31.04
17593;BME280;8915;51.760;14.300;2023-05-29T12:35:10;101393.41;;;23.51;31.31
17593;BME280;8915;51.760;14.300;2023-05-29T12:37:41;101383.78;;;23.53;30.98
17593;BME280;8915;51.760;14.300;2023-05-29T12:40:15;101392.66;;;23.54;31.35
17593;BME280;8915;51.760;14.300;2023-05-29T12:42:42;101383.41;;;23.52;31.88
17593;BME280;8915;51.760;14.300;2023-05-29T12:45:09;101386.06;;;23.58;31.94
17593;BME280;8915;51.760;14.300;2023-05-29T12:47:37;101389.50;;;23.66;31.15
17593;BME280;8915;51.760;14.300;2023-05-29T12:50:19;101384.84;;;23.70;31.32
17593;BME280;8915;51.760;14.300;2023-05-29T12:52:45;101395.19;;;23.78;31.44
17593;BME280;8915;51.760;14.300;2023-05-29T12:55:12;101391.69;;;23.85;31.28
17593;BME280;8915;51.760;14.300;2023-05-29T12:57:38;101389.34;;;23.87;30.49
17593;BME280;8915;51.760;14.300;2023-05-29T13:00:07;101385.91;;;23.90;30.25
17593;BME280;8915;51.760;14.300;2023-05-29T13:02:36;101390.88;;;23.95;31.75